Time;durP1;ratioP1;P1;durP2;ratioP2;P2;SDS_P1;SDS_P2;PMS_P1;PMS_P2;Temp;Humidity;BMP_temperature;BMP_pressure;BME280_temperature;BME280_humidity;BME280_pressure;Samples;Min_cycle;Max_cycle;Signal;HPM_P1;HPM_P2
2022/01/13 00:02:36;;;;;;;38.47;14.93;;;;;;;0.74;100.00;102378.60;3664373;78;99328;-84
2022/01/13 00:07:37;;;;;;;40.57;15.60;;;;;;;0.80;100.00;102378.06;3679165;78;25887;-84
2022/01/13 00:12:42;;;;;;;39.87;16.90;;;;;;;0.81;100.00;102380.52;3666024;78;99181;-84
2022/01/13 00:17:57;;;;;;;40.70;16.93;;;;;;;0.86;100.00;102377.00;3734097;77;98808;-85
2022/01/13 00:27:55;;;;;;;41.43;15.00;;;;;;;0.89;100.00;102335.83;3722881;77;98210;-84
2022/01/13 00:32:52;;;;;;;39.77;15.40;;;;;;;0.93;100.00;102336.93;3750937;77;99076;-85
2022/01/13 00:37:53;;;;;;;44.43;16.43;;;;;;;0.94;100.00;102314.95;3760963;77;33192;-85
2022/01/13 00:42:54;;;;;;;36.93;16.13;;;;;;;0.96;100.00;102320.94;3752909;77;99237;-85
2022/01/13 00:47:54;;;;;;;37.07;14.53;;;;;;;0.99;100.00;102310.11;3754053;77;98856;-84
2022/01/13 00:52:55;;;;;;;39.87;17.40;;;;;;;1.00;100.00;102292.19;3754714;77;98454;-84
2022/01/13 00:57:56;;;;;;;44.27;16.93;;;;;;;1.03;100.00;102293.55;3746974;77;99475;-84
2022/01/13 01:02:57;;;;;;;44.73;17.77;;;;;;;1.05;100.00;102282.71;3749446;76;99044;-85
2022/01/13 01:08:07;;;;;;;43.80;18.20;;;;;;;1.06;100.00;102268.09;3755188;77;26328;-86
2022/01/13 01:13:13;;;;;;;44.83;17.53;;;;;;;1.09;100.00;102281.66;3736524;76;98708;-87
2022/01/13 01:29:07;;;;;;;40.83;16.53;;;;;;;1.14;100.00;102276.22;3674898;79;98963;-86
2022/01/13 01:34:17;;;;;;;41.90;16.62;;;;;;;1.16;100.00;102289.78;3672327;77;99040;-86
2022/01/13 01:39:05;;;;;;;43.60;16.75;;;;;;;1.20;100.00;102288.73;3658479;78;98958;-86
2022/01/13 01:44:18;;;;;;;42.37;19.67;;;;;;;1.21;100.00;102269.45;3674969;79;29389;-84
2022/01/13 01:49:22;;;;;;;37.47;17.73;;;;;;;1.24;100.00;102279.77;3671702;79;99077;-86
2022/01/13 01:54:23;;;;;;;45.10;17.27;;;;;;;1.27;100.00;102278.41;3677266;79;98820;-87
2022/01/13 01:59:29;;;;;;;44.33;17.87;;;;;;;1.30;100.00;102281.92;3650871;79;99414;-86
2022/01/13 02:04:28;;;;;;;45.53;17.13;;;;;;;1.31;100.00;102283.58;3654075;79;99120;-86
2022/01/13 02:09:30;;;;;;;40.98;17.32;;;;;;;1.32;100.00;102291.98;3646742;78;99072;-87
2022/01/13 02:14:34;;;;;;;41.03;18.57;;;;;;;1.34;100.00;102278.95;3603852;79;99352;-86
2022/01/13 02:19:38;;;;;;;45.43;17.63;;;;;;;1.33;100.00;102263.23;3658345;78;99068;-86
2022/01/13 02:24:39;;;;;;;44.60;19.67;;;;;;;1.35;100.00;102271.91;3649401;78;98778;-86
2022/01/13 02:29:40;;;;;;;44.83;18.63;;;;;;;1.37;100.00;102242.59;3639672;78;98971;-86
2022/01/13 02:34:42;;;;;;;48.63;19.43;;;;;;;1.37;100.00;102245.88;3647500;78;99022;-87
2022/01/13 02:39:43;;;;;;;44.97;19.63;;;;;;;1.36;100.00;102235.55;3629389;78;98985;-87
2022/01/13 02:45:21;;;;;;;44.60;18.33;;;;;;;1.36;100.00;102235.55;3658606;78;98965;-87
2022/01/13 02:49:56;;;;;;;47.27;20.73;;;;;;;1.36;100.00;102234.19;3631796;78;98936;-87
2022/01/13 02:54:57;;;;;;;46.10;22.50;;;;;;;1.37;100.00;102224.17;3658294;78;98786;-87
2022/01/13 02:59:59;;;;;;;46.63;19.10;;;;;;;1.36;100.00;102212.49;3645107;79;99150;-87
2022/01/13 03:05:00;;;;;;;47.23;18.47;;;;;;;1.38;100.00;102206.80;3661561;78;99321;-87
2022/01/13 03:10:02;;;;;;;43.60;18.43;;;;;;;1.38;100.00;102206.23;3637985;79;99131;-87
2022/01/13 03:15:04;;;;;;;45.33;20.00;;;;;;;1.39;100.00;102190.26;3638224;78;99101;-87
2022/01/13 03:20:06;;;;;;;45.90;20.33;;;;;;;1.39;100.00;102191.62;3641234;78;99035;-88
2022/01/13 03:25:09;;;;;;;49.03;19.53;;;;;;;1.39;100.00;102178.05;3643501;78;98888;-87
2022/01/13 03:30:11;;;;;;;45.38;20.43;;;;;;;1.41;100.00;102162.30;3635301;78;99290;-88
2022/01/13 03:35:12;;;;;;;51.03;21.77;;;;;;;1.42;100.00;102147.65;3645970;79;99552;-87
2022/01/13 03:40:13;;;;;;;47.97;20.47;;;;;;;1.43;100.00;102155.25;3634403;79;99228;-87
2022/01/13 03:45:14;;;;;;;47.57;20.37;;;;;;;1.42;100.00;102168.55;3645957;79;99085;-87
2022/01/13 03:50:15;;;;;;;47.37;18.43;;;;;;;1.42;100.00;102180.20;3633034;78;98879;-87
2022/01/13 03:55:39;;;;;;;44.33;18.00;;;;;;;1.42;100.00;102159.86;3639292;78;98756;-87
2022/01/13 04:01:32;;;;;;;51.87;18.87;;;;;;;1.44;100.00;102171.27;3625141;79;98936;-87
2022/01/13 04:06:43;;;;;;;47.30;18.53;;;;;;;1.43;100.00;102153.34;3630741;78;98899;-87
2022/01/13 04:11:43;;;;;;;40.25;17.75;;;;;;;1.44;100.00;102142.78;3636725;79;98919;-87
2022/01/13 04:16:45;;;;;;;51.77;20.50;;;;;;;1.46;100.00;102114.82;3642640;79;99329;-87
2022/01/13 04:21:46;;;;;;;53.10;18.55;;;;;;;1.46;100.00;102125.67;3638284;79;99167;-86
2022/01/13 04:26:47;;;;;;;51.40;19.20;;;;;;;1.48;100.00;102138.41;3701050;78;98961;-87
2022/01/13 04:31:50;;;;;;;47.60;18.40;;;;;;;1.48;100.00;102125.41;3708668;78;98740;-87
2022/01/13 04:36:51;;;;;;;46.37;17.27;;;;;;;1.49;100.00;102119.68;3712150;78;98856;-87
2022/01/13 04:41:54;;;;;;;48.83;18.83;;;;;;;1.48;100.00;102115.34;3713351;78;98871;-87
2022/01/13 04:46:55;;;;;;;47.77;18.93;;;;;;;1.51;100.00;102111.27;3714878;78;98950;-87
2022/01/13 04:51:56;;;;;;;48.53;20.17;;;;;;;1.51;100.00;102086.85;3704868;78;99088;-87
2022/01/13 04:57:15;;;;;;;47.63;18.93;;;;;;;1.51;100.00;102071.92;3714103;77;99100;-88
2022/01/13 05:02:09;;;;;;;48.47;18.27;;;;;;;1.53;100.00;102065.70;3723044;77;98687;-88
2022/01/13 05:07:10;;;;;;;55.87;20.10;;;;;;;1.52;100.00;102071.66;3653932;79;98971;-87
2022/01/13 05:12:11;;;;;;;50.63;20.03;;;;;;;1.54;100.00;102083.03;3625530;80;99012;-88
2022/01/13 05:17:34;;;;;;;48.00;19.10;;;;;;;1.56;100.00;102075.98;3647653;78;99007;-89
2022/01/13 05:22:17;;;;;;;44.30;17.62;;;;;;;1.57;100.00;102074.35;3656669;78;99341;-87
2022/01/13 05:27:19;;;;;;;47.20;17.87;;;;;;;1.59;100.00;102070.02;3637129;79;99451;-88
2022/01/13 05:32:20;;;;;;;42.70;16.53;;;;;;;1.60;100.00;102069.72;3742736;77;98615;-88
2022/01/13 05:37:21;;;;;;;44.67;19.30;;;;;;;1.64;100.00;102070.00;3751798;77;99229;-89
2022/01/13 05:42:22;;;;;;;42.77;17.13;;;;;;;1.64;100.00;102056.42;3736641;77;98904;-88
2022/01/13 05:47:26;;;;;;;49.27;17.07;;;;;;;1.67;100.00;102058.56;3752520;77;98953;-89
2022/01/13 05:52:26;;;;;;;47.67;17.42;;;;;;;1.67;100.00;102051.25;3737717;77;98956;-89
2022/01/13 05:57:27;;;;;;;45.37;16.93;;;;;;;1.72;100.00;102046.34;3741683;77;99352;-89
2022/01/13 06:02:28;;;;;;;43.97;16.07;;;;;;;1.75;100.00;102045.79;3737348;77;99240;-88
2022/01/13 06:07:29;;;;;;;54.50;21.23;;;;;;;1.76;100.00;102050.13;3767469;77;31439;-89
2022/01/13 06:12:34;;;;;;;73.80;25.00;;;;;;;1.78;100.00;102047.92;3749587;77;98541;-89
2022/01/13 06:17:36;;;;;;;46.87;17.37;;;;;;;1.81;100.00;102043.31;3754325;76;99441;-89
2022/01/13 06:22:39;;;;;;;45.13;18.70;;;;;;;1.82;100.00;102024.04;3732254;76;98899;-89
2022/01/13 06:27:42;;;;;;;40.90;15.27;;;;;;;1.83;100.00;102012.62;3747279;77;99006;-89
2022/01/13 06:32:44;;;;;;;45.13;17.17;;;;;;;1.86;100.00;102024.28;3744391;76;99065;-88
2022/01/13 06:37:45;;;;;;;46.53;17.75;;;;;;;1.88;100.00;102028.88;3741290;75;32384;-88
2022/01/13 06:42:46;;;;;;;43.93;16.77;;;;;;;1.89;100.00;102033.21;3721606;76;98924;-85
2022/01/13 06:47:47;;;;;;;45.67;17.43;;;;;;;1.92;100.00;102060.61;3747838;77;99286;-88
2022/01/13 06:52:48;;;;;;;42.33;18.77;;;;;;;1.94;100.00;102067.13;3723098;77;99279;-89
2022/01/13 06:57:49;;;;;;;50.43;17.03;;;;;;;1.95;100.00;102079.06;3745486;76;99382;-89
2022/01/13 07:02:52;;;;;;;42.17;17.50;;;;;;;1.99;100.00;102060.30;3734642;77;99094;-88
2022/01/13 07:07:53;;;;;;;53.73;21.93;;;;;;;2.00;100.00;102076.86;3751946;77;31644;-88
2022/01/13 07:12:54;;;;;;;52.50;22.40;;;;;;;2.03;100.00;102065.45;3744641;77;99476;-89
2022/01/13 07:17:55;;;;;;;48.03;18.27;;;;;;;2.05;100.00;102067.33;3716968;77;99033;-89
2022/01/13 07:22:57;;;;;;;54.63;20.43;;;;;;;2.07;100.00;102063.23;3736444;77;99533;-90
2022/01/13 07:27:58;;;;;;;44.53;18.43;;;;;;;2.09;100.00;102066.48;3743662;77;99031;-91
2022/01/13 07:33:00;;;;;;;50.10;19.77;;;;;;;2.13;100.00;102069.47;3748054;77;98999;-89
2022/01/13 07:38:00;;;;;;;43.63;19.73;;;;;;;2.15;100.00;102063.20;3754732;77;31579;-89
2022/01/13 07:43:02;;;;;;;42.07;18.10;;;;;;;2.16;100.00;102049.34;3737810;76;99035;-88
2022/01/13 07:48:03;;;;;;;46.73;17.70;;;;;;;2.18;100.00;102047.14;3753331;77;99203;-90
2022/01/13 07:53:04;;;;;;;51.57;19.60;;;;;;;2.20;100.00;102057.73;3705616;77;99475;-90
2022/01/13 07:58:05;;;;;;;44.27;19.32;;;;;;;2.21;100.00;102035.73;3763488;77;99401;-89
2022/01/13 08:03:08;;;;;;;48.17;18.00;;;;;;;2.22;100.00;102030.55;3749361;77;99106;-88
2022/01/13 08:08:09;;;;;;;45.33;18.80;;;;;;;2.25;100.00;102045.48;3763966;77;32321;-89
2022/01/13 08:13:11;;;;;;;45.20;19.00;;;;;;;2.25;100.00;102044.91;3756146;76;99009;-89
2022/01/13 08:23:31;;;;;;;47.90;18.63;;;;;;;2.31;100.00;102031.59;3763966;76;99003;-89
2022/01/13 08:28:32;;;;;;;52.40;20.77;;;;;;;2.32;100.00;102043.25;3771962;76;98973;-89
2022/01/13 08:33:33;;;;;;;44.67;18.60;;;;;;;2.35;100.00;102035.91;3773917;77;99369;-89
2022/01/13 08:38:37;;;;;;;47.73;19.90;;;;;;;2.39;100.00;102035.58;3773231;77;99132;-87
2022/01/13 08:43:38;;;;;;;43.97;19.47;;;;;;;2.38;100.00;102025.27;3777287;77;26245;-88
2022/01/13 08:48:39;;;;;;;48.80;19.93;;;;;;;2.41;100.00;102013.82;3750694;77;99037;-88
2022/01/13 08:53:45;;;;;;;46.77;19.43;;;;;;;2.44;100.00;102029.57;3757972;77;99533;-88
2022/01/13 08:58:47;;;;;;;45.65;18.60;;;;;;;2.48;100.00;102029.27;3768227;77;99011;-87
2022/01/13 09:03:48;;;;;;;42.77;17.20;;;;;;;2.51;100.00;102030.61;3753256;76;99261;-87
2022/01/13 09:08:49;;;;;;;42.75;17.87;;;;;;;2.55;100.00;102038.44;3748293;75;99034;-90
2022/01/13 09:13:56;;;;;;;35.60;16.70;;;;;;;2.57;100.00;102020.75;3644695;80;32079;-89
2022/01/13 09:23:57;;;;;;;36.68;15.68;;;;;;;2.68;100.00;102006.54;3627439;80;98905;-89
2022/01/13 09:28:58;;;;;;;36.77;14.83;;;;;;;2.72;100.00;101995.33;3631428;80;99357;-93
2022/01/13 09:34:01;;;;;;;42.17;17.70;;;;;;;2.79;100.00;101998.55;3634832;80;99482;-94
2022/01/13 09:39:06;;;;;;;37.13;15.32;;;;;;;2.83;100.00;102005.83;3629689;80;99407;-94
2022/01/13 09:44:07;;;;;;;41.08;16.07;;;;;;;2.88;100.00;101990.00;3642788;80;33233;-94
2022/01/13 09:49:08;;;;;;;37.87;15.10;;;;;;;2.94;100.00;101979.33;3633370;80;99151;-96
2022/01/13 09:54:09;;;;;;;34.07;15.50;;;;;;;2.96;100.00;101971.72;3605928;80;98972;-95
2022/01/13 09:59:10;;;;;;;30.73;14.93;;;;;;;3.02;100.00;101977.36;3612847;80;99086;-95
2022/01/13 10:04:11;;;;;;;33.27;13.97;;;;;;;3.04;100.00;101980.58;3632297;80;99092;-95
2022/01/13 10:09:13;;;;;;;36.77;16.27;;;;;;;3.09;100.00;101971.01;3626535;80;99056;-96
2022/01/13 10:19:36;;;;;;;30.10;13.53;;;;;;;3.18;100.00;101991.84;3602714;80;99419;-95
2022/01/13 10:24:47;;;;;;;28.70;13.38;;;;;;;3.22;100.00;101988.80;3614005;80;33766;-96
2022/01/13 10:29:56;;;;;;;30.93;12.90;;;;;;;3.27;100.00;101979.22;3596435;80;99145;-96
2022/01/13 10:35:01;;;;;;;27.52;12.98;;;;;;;3.28;100.00;101963.15;3629247;80;99116;-96
2022/01/13 10:40:12;;;;;;;31.40;12.85;;;;;;;3.31;100.00;101963.94;3586144;80;99294;-96
2022/01/13 10:45:20;;;;;;;25.60;11.80;;;;;;;3.35;100.00;101973.15;3615866;80;98251;-94
2022/01/13 10:50:24;;;;;;;31.83;13.03;;;;;;;3.36;100.00;101965.23;3505499;83;98165;-95
2022/01/13 10:55:25;;;;;;;29.67;12.30;;;;;;;3.40;100.00;101955.94;3516893;83;98855;-95
2022/01/13 11:00:32;;;;;;;25.77;12.23;;;;;;;3.42;100.00;101953.72;3500986;83;99031;-96
2022/01/13 11:05:34;;;;;;;26.65;12.70;;;;;;;3.44;100.00;101948.81;3499127;83;98180;-96
2022/01/13 11:10:42;;;;;;;23.57;10.05;;;;;;;3.46;100.00;101932.45;3514019;83;99071;-96
2022/01/13 11:15:49;;;;;;;23.02;10.15;;;;;;;3.47;100.00;101927.80;3523722;82;98409;-96
2022/01/13 11:20:49;;;;;;;23.07;11.10;;;;;;;3.50;100.00;101929.95;3596313;80;99023;-96
2022/01/13 11:25:55;;;;;;;24.40;10.25;;;;;;;3.51;100.00;101931.03;3597379;80;33195;-96
2022/01/13 11:31:00;;;;;;;25.05;10.40;;;;;;;3.55;100.00;101917.63;3602783;80;99319;-96
2022/01/13 11:36:02;;;;;;;23.00;9.73;;;;;;;3.57;100.00;101905.89;3604360;81;98014;-96
2022/01/13 11:41:07;;;;;;;21.52;9.58;;;;;;;3.62;100.00;101893.03;3592503;80;98869;-94
2022/01/13 11:46:24;;;;;;;23.98;10.13;;;;;;;3.63;100.00;101886.47;3608729;80;97985;-96
2022/01/13 11:51:29;;;;;;;22.25;10.45;;;;;;;3.65;100.00;101880.73;3590436;80;99344;-94
2022/01/13 11:56:30;;;;;;;19.55;8.95;;;;;;;3.65;100.00;101872.57;3587450;81;33620;-96
2022/01/13 12:01:35;;;;;;;25.85;10.70;;;;;;;3.67;100.00;101875.80;3602011;81;98599;-96
2022/01/13 12:06:43;;;;;;;23.22;10.35;;;;;;;3.67;100.00;101865.69;3603971;80;98449;-96
2022/01/13 12:11:51;;;;;;;22.13;11.97;;;;;;;3.68;100.00;101847.46;3623058;80;98965;-95
2022/01/13 12:17:24;;;;;;;24.10;10.80;;;;;;;3.68;100.00;101851.00;3643800;79;98974;-96
2022/01/13 12:22:39;;;;;;;23.27;10.55;;;;;;;3.70;100.00;101850.14;3634086;80;99004;-96
2022/01/13 12:27:46;;;;;;;25.65;12.10;;;;;;;3.70;100.00;101844.70;3651128;80;98969;-96
2022/01/13 12:32:57;;;;;;;95.85;31.95;;;;;;;3.69;100.00;101830.02;3653148;80;99212;-96
2022/01/13 12:38:20;;;;;;;40.60;13.60;;;;;;;3.68;100.00;101829.22;3647822;80;33247;-95
2022/01/13 12:43:47;;;;;;;30.92;13.00;;;;;;;3.71;100.00;101831.91;3644077;79;98907;-93
2022/01/13 12:48:41;;;;;;;91.02;27.93;;;;;;;3.73;100.00;101836.48;3643332;79;99285;-96
2022/01/13 12:53:45;;;;;;;37.45;14.68;;;;;;;3.74;100.00;101838.92;3652212;80;98145;-95
2022/01/13 12:58:51;;;;;;;32.70;14.07;;;;;;;3.74;100.00;101836.20;3633093;79;99005;-95
2022/01/13 13:04:08;;;;;;;32.98;13.15;;;;;;;3.76;100.00;101850.31;3652132;79;98194;-96
2022/01/13 13:09:13;;;;;;;56.15;18.55;;;;;;;3.78;100.00;101850.02;3629855;80;99036;-96
2022/01/13 13:14:23;;;;;;;41.05;16.35;;;;;;;3.79;100.00;101843.47;3645529;80;33124;-96
2022/01/13 13:19:23;;;;;;;36.80;15.35;;;;;;;3.80;100.00;101848.62;3642300;79;99297;-95
2022/01/13 13:24:24;;;;;;;35.60;16.43;;;;;;;3.80;100.00;101847.80;3658233;80;98838;-96
2022/01/13 13:29:26;;;;;;;38.70;16.67;;;;;;;3.79;100.00;101844.28;3658219;79;99067;-93
2022/01/13 13:34:36;;;;;;;39.60;16.90;;;;;;;3.79;100.00;101846.19;3649753;80;98987;-96
2022/01/13 13:39:37;;;;;;;48.65;19.92;;;;;;;3.80;100.00;101843.72;3635058;80;99041;-96
2022/01/13 13:44:41;;;;;;;47.13;19.47;;;;;;;3.81;100.00;101843.42;3654754;79;99509;-92
2022/01/13 13:49:48;;;;;;;46.42;20.80;;;;;;;3.81;100.00;101844.78;3625434;80;98959;-96
2022/01/13 13:54:52;;;;;;;47.62;19.27;;;;;;;3.81;100.00;101838.52;3654911;80;98111;-96
2022/01/13 13:59:55;;;;;;;37.65;16.27;;;;;;;3.83;100.00;101839.84;3617712;80;99069;-94
2022/01/13 14:05:10;;;;;;;54.08;22.07;;;;;;;3.81;100.00;101836.61;3617415;80;98973;-94
2022/01/13 14:10:17;;;;;;;54.63;21.57;;;;;;;3.80;100.00;101841.81;3641090;80;99072;-96
2022/01/13 14:15:35;;;;;;;50.38;19.62;;;;;;;3.81;100.00;101846.14;3594763;80;99037;-96
2022/01/13 14:20:39;;;;;;;45.35;20.02;;;;;;;3.82;100.00;101837.44;3518101;82;99158;-96
2022/01/13 14:25:42;;;;;;;52.08;20.30;;;;;;;3.82;100.00;101835.50;3595857;80;97898;-94
2022/01/13 14:30:47;;;;;;;50.60;21.25;;;;;;;3.83;100.00;101820.78;3584907;80;98970;-96
2022/01/13 14:36:01;;;;;;;52.35;19.52;;;;;;;3.83;100.00;101823.50;3595155;80;99065;-96
2022/01/13 14:41:03;;;;;;;45.17;19.27;;;;;;;3.86;100.00;101830.27;3558436;80;98988;-95
2022/01/13 14:46:13;;;;;;;45.63;19.57;;;;;;;3.89;100.00;101828.32;3578198;80;98298;-95
2022/01/13 14:51:17;;;;;;;46.77;20.02;;;;;;;3.90;100.00;101831.30;3595891;80;99807;-95
2022/01/13 14:56:20;;;;;;;45.47;21.00;;;;;;;3.88;100.00;101828.07;3577946;81;36570;-95
2022/01/13 15:01:26;;;;;;;46.73;20.32;;;;;;;3.92;100.00;101841.33;3498859;82;98859;-96
2022/01/13 15:06:29;;;;;;;46.63;19.70;;;;;;;3.91;100.00;101836.98;3563895;80;98887;-96
2022/01/13 15:11:29;;;;;;;49.60;22.87;;;;;;;3.93;100.00;101836.16;3586457;80;99010;-94
2022/01/13 15:16:31;;;;;;;48.67;21.33;;;;;;;3.93;100.00;101834.22;3554896;80;98181;-96
2022/01/13 15:21:33;;;;;;;55.08;21.57;;;;;;;3.95;100.00;101832.57;3583246;80;99702;-94
2022/01/13 15:26:35;;;;;;;55.30;22.80;;;;;;;3.96;100.00;101830.09;3583571;80;33617;-96
2022/01/13 15:31:36;;;;;;;53.28;23.50;;;;;;;3.99;100.00;101836.33;3581514;80;98721;-96
2022/01/13 15:36:37;;;;;;;57.03;22.60;;;;;;;4.00;100.00;101837.94;3558565;80;98921;-93
2022/01/13 15:41:38;;;;;;;64.70;24.93;;;;;;;4.00;100.00;101845.56;3579202;80;98984;-93
2022/01/13 15:46:39;;;;;;;52.35;21.62;;;;;;;4.02;100.00;101858.86;3569351;80;99099;-93
2022/01/13 15:51:40;;;;;;;57.83;22.17;;;;;;;4.02;100.00;101842.52;3556683;80;98834;-93
2022/01/13 15:56:41;;;;;;;52.53;20.93;;;;;;;4.04;100.00;101849.28;3580164;80;32183;-95
2022/01/13 16:01:42;;;;;;;48.33;20.63;;;;;;;4.06;100.00;101849.81;3578544;80;98930;-94
2022/01/13 16:06:43;;;;;;;45.73;21.47;;;;;;;4.06;100.00;101852.54;3584125;80;98861;-94
2022/01/13 16:11:44;;;;;;;57.93;27.10;;;;;;;4.08;100.00;101854.94;3593155;80;99098;-95
2022/01/13 16:16:45;;;;;;;57.77;24.07;;;;;;;4.10;100.00;101846.72;3612281;80;99056;-96
2022/01/13 16:21:47;;;;;;;61.13;23.47;;;;;;;4.10;100.00;101840.48;3612262;79;98878;-95
2022/01/13 16:26:47;;;;;;;58.87;25.40;;;;;;;4.10;100.00;101846.72;3645825;79;99100;-94
2022/01/13 16:31:48;;;;;;;55.25;22.70;;;;;;;4.12;100.00;101836.90;3637431;79;98617;-94
2022/01/13 16:36:50;;;;;;;64.20;23.03;;;;;;;4.12;100.00;101846.43;3650276;80;99150;-96
2022/01/13 16:41:51;;;;;;;65.28;26.90;;;;;;;4.13;100.00;101837.97;3643193;79;99632;-94
2022/01/13 16:46:52;;;;;;;47.30;20.30;;;;;;;4.16;100.00;101846.09;3656351;79;98247;-94
2022/01/13 16:51:53;;;;;;;52.23;21.90;;;;;;;4.19;100.00;101827.77;3645137;79;98967;-95
2022/01/13 16:56:54;;;;;;;50.77;21.60;;;;;;;4.22;100.00;101826.64;3612714;80;99043;-94
2022/01/13 17:01:56;;;;;;;50.67;21.63;;;;;;;4.21;100.00;101836.47;3629282;80;98927;-93
2022/01/13 17:06:57;;;;;;;49.90;21.63;;;;;;;4.21;100.00;101816.82;3644998;80;98870;-92
2022/01/13 17:11:58;;;;;;;53.07;23.17;;;;;;;4.23;100.00;101830.16;3635559;80;99049;-94
2022/01/13 17:17:02;;;;;;;50.53;21.27;;;;;;;4.25;100.00;101827.38;3636058;79;98998;-94
2022/01/13 17:22:04;;;;;;;58.50;21.85;;;;;;;4.29;100.00;101823.50;3642068;79;99023;-95
2022/01/13 17:27:06;;;;;;;52.95;22.02;;;;;;;4.31;100.00;101816.64;3648797;80;99462;-91
2022/01/13 17:32:10;;;;;;;48.20;20.23;;;;;;;4.33;100.00;101810.34;3644255;80;98927;-96
2022/01/13 17:37:11;;;;;;;46.40;18.92;;;;;;;4.35;100.00;101801.30;3652019;79;98923;-93
2022/01/13 17:42:12;;;;;;;47.57;21.83;;;;;;;4.38;100.00;101803.44;3661488;79;99192;-94
2022/01/13 17:47:17;;;;;;;44.43;20.10;;;;;;;4.39;100.00;101802.86;3640671;80;99042;-91
2022/01/13 17:52:17;;;;;;;48.33;18.90;;;;;;;4.37;100.00;101801.80;3642416;79;99230;-92
2022/01/13 17:57:19;;;;;;;43.83;18.35;;;;;;;4.37;100.00;101807.83;3635135;80;98299;-93
2022/01/13 18:02:20;;;;;;;46.58;16.70;;;;;;;4.38;100.00;101797.17;3654890;80;98902;-94
2022/01/13 18:07:21;;;;;;;46.27;19.70;;;;;;;4.39;100.00;101797.41;3630076;79;99340;-92
2022/01/13 18:12:25;;;;;;;57.73;21.67;;;;;;;4.41;100.00;101806.09;3642445;80;98665;-94
2022/01/13 18:17:26;;;;;;;51.25;21.87;;;;;;;4.42;100.00;101799.55;3631582;80;99012;-91
2022/01/13 18:22:27;;;;;;;56.93;22.13;;;;;;;4.43;100.00;101792.41;3621288;79;99019;-95
2022/01/13 18:27:28;;;;;;;49.17;20.00;;;;;;;4.41;100.00;101788.37;3647577;80;99121;-93
2022/01/13 18:32:29;;;;;;;40.50;19.07;;;;;;;4.44;100.00;101791.32;3633813;80;98725;-91
2022/01/13 18:37:30;;;;;;;44.13;18.50;;;;;;;4.43;100.00;101797.07;3650059;80;98839;-93
2022/01/13 18:42:37;;;;;;;47.70;19.92;;;;;;;4.44;100.00;101795.95;3645889;80;98938;-96
2022/01/13 18:47:36;;;;;;;52.13;19.93;;;;;;;4.44;100.00;101800.86;3635283;80;99015;-94
2022/01/13 18:52:38;;;;;;;51.37;19.45;;;;;;;4.41;100.00;101801.45;3636928;80;99553;-96
2022/01/13 18:57:39;;;;;;;45.45;18.60;;;;;;;4.42;100.00;101795.45;3649331;79;99055;-95
2022/01/13 19:02:40;;;;;;;53.77;20.03;;;;;;;4.42;100.00;101781.83;3629916;80;98830;-89
2022/01/13 19:07:41;;;;;;;42.07;19.33;;;;;;;4.42;100.00;101770.36;3635956;79;98758;-94
2022/01/13 19:12:44;;;;;;;39.97;17.83;;;;;;;4.43;100.00;101776.05;3630481;79;99359;-93
2022/01/13 19:22:53;;;;;;;52.65;22.75;;;;;;;4.43;100.00;101761.06;3645226;80;99118;-93
2022/01/13 19:27:55;;;;;;;38.70;16.47;;;;;;;4.45;100.00;101751.22;3645671;80;99414;-95
2022/01/13 19:32:58;;;;;;;45.50;17.00;;;;;;;4.46;100.00;101759.10;3639989;79;99052;-93
2022/01/13 19:37:59;;;;;;;50.75;19.60;;;;;;;4.50;100.00;101753.30;3648947;80;32083;-95
2022/01/13 19:43:01;;;;;;;40.47;17.73;;;;;;;4.53;100.00;101747.23;3644968;79;98813;-92
2022/01/13 19:48:03;;;;;;;35.55;15.32;;;;;;;4.53;100.00;101742.34;3642815;80;98979;-94
2022/01/13 19:53:13;;;;;;;32.90;14.47;;;;;;;4.55;100.00;101752.37;3644804;79;98674;-96
2022/01/13 19:58:07;;;;;;;38.50;17.00;;;;;;;4.56;100.00;101745.27;3647676;79;99065;-95
2022/01/13 20:03:09;;;;;;;35.97;16.30;;;;;;;4.61;100.00;101753.88;3637874;79;99449;-95
2022/01/13 20:08:10;;;;;;;31.25;14.65;;;;;;;4.63;100.00;101735.31;3653370;80;28813;-95
2022/01/13 20:13:12;;;;;;;30.63;13.80;;;;;;;4.64;100.00;101726.02;3618469;80;98805;-97
2022/01/13 20:18:13;;;;;;;31.53;16.80;;;;;;;4.66;100.00;101730.60;3631308;80;99236;-92
2022/01/13 20:23:18;;;;;;;58.00;24.52;;;;;;;4.66;100.00;101718.33;3617214;80;98254;-93
2022/01/13 20:28:19;;;;;;;33.93;15.27;;;;;;;4.69;100.00;101730.79;3625174;80;99140;-92
2022/01/13 20:33:20;;;;;;;40.67;16.97;;;;;;;4.72;100.00;101732.92;3639173;80;99130;-92
2022/01/13 20:38:21;;;;;;;45.67;19.10;;;;;;;4.74;100.00;101722.50;3610792;80;99226;-91
2022/01/13 20:43:24;;;;;;;40.80;17.70;;;;;;;4.73;100.00;101722.26;3591345;80;98702;-94
2022/01/13 20:48:25;;;;;;;41.02;18.42;;;;;;;4.73;100.00;101709.98;3595063;80;99279;-96
2022/01/13 20:53:27;;;;;;;39.37;17.70;;;;;;;4.73;100.00;101710.53;3592742;81;99057;-94
2022/01/13 20:58:27;;;;;;;38.37;16.33;;;;;;;4.74;100.00;101703.41;3598712;80;99106;-96
2022/01/13 21:03:28;;;;;;;33.73;15.03;;;;;;;4.75;100.00;101692.75;3596150;80;99088;-94
2022/01/13 21:08:31;;;;;;;33.47;14.63;;;;;;;4.76;100.00;101681.30;3590704;80;98783;-92
2022/01/13 21:13:36;;;;;;;33.50;14.90;;;;;;;4.78;100.00;101685.88;3614759;80;98850;-95
2022/01/13 21:18:37;;;;;;;43.38;19.12;;;;;;;4.79;100.00;101686.11;3645684;80;98803;-95
2022/01/13 21:23:39;;;;;;;32.05;14.65;;;;;;;4.80;100.00;101687.75;3644419;79;99026;-91
2022/01/13 21:28:41;;;;;;;32.50;15.37;;;;;;;4.81;100.00;101692.88;3636716;79;99492;-95
2022/01/13 21:33:44;;;;;;;30.60;13.90;;;;;;;4.82;100.00;101700.52;3637875;80;99424;-94
2022/01/13 21:38:47;;;;;;;32.40;15.40;;;;;;;4.82;100.00;101699.16;3631961;80;99151;-92
2022/01/13 21:43:48;;;;;;;31.90;14.20;;;;;;;4.79;100.00;101689.66;3641600;80;98736;-94
2022/01/13 21:48:49;;;;;;;30.35;13.95;;;;;;;4.79;100.00;101682.02;3625666;79;99009;-94
2022/01/13 21:53:50;;;;;;;31.37;14.90;;;;;;;4.81;100.00;101690.72;3635977;80;99316;-93
2022/01/13 21:58:51;;;;;;;34.37;14.53;;;;;;;4.83;100.00;101678.94;3636617;79;99236;-94
2022/01/13 22:03:58;;;;;;;31.07;14.63;;;;;;;4.83;100.00;101687.94;3650415;80;98262;-94
2022/01/13 22:14:01;;;;;;;37.30;15.20;;;;;;;4.84;100.00;101696.91;3654402;79;34678;-94
2022/01/13 22:19:03;;;;;;;31.60;13.68;;;;;;;4.83;100.00;101700.21;3643780;79;99084;-94
2022/01/13 22:24:04;;;;;;;35.25;13.78;;;;;;;4.83;100.00;101689.30;3645038;79;99506;-95
2022/01/13 22:29:04;;;;;;;31.67;14.00;;;;;;;4.85;100.00;101689.00;3648860;80;99092;-93
2022/01/13 22:34:07;;;;;;;35.90;13.93;;;;;;;4.84;100.00;101690.91;3642764;79;98987;-93
2022/01/13 22:39:08;;;;;;;29.90;13.83;;;;;;;4.84;100.00;101677.27;3645338;79;98985;-94
2022/01/13 22:44:09;;;;;;;34.90;14.43;;;;;;;4.85;100.00;101672.06;3513294;83;34620;-95
2022/01/13 22:49:10;;;;;;;29.80;13.97;;;;;;;4.86;100.00;101673.67;3638335;79;98924;-93
2022/01/13 22:54:12;;;;;;;31.50;13.97;;;;;;;4.87;100.00;101671.76;3648203;79;99533;-92
2022/01/13 22:59:13;;;;;;;31.85;14.47;;;;;;;4.87;100.00;101667.67;3626384;80;99074;-91
2022/01/13 23:04:14;;;;;;;32.67;13.17;;;;;;;4.87;100.00;101667.13;3636933;79;99007;-94
2022/01/13 23:09:15;;;;;;;28.47;13.20;;;;;;;4.89;100.00;101671.70;3634031;80;99067;-96
2022/01/13 23:14:28;;;;;;;26.68;13.03;;;;;;;4.87;100.00;101668.48;3628467;80;34655;-96
2022/01/13 23:24:38;;;;;;;23.90;11.73;;;;;;;4.87;100.00;101656.22;3625280;80;98896;-96
2022/01/13 23:29:38;;;;;;;26.57;12.47;;;;;;;4.89;100.00;101648.52;3608252;80;99143;-93
2022/01/13 23:34:39;;;;;;;26.17;12.00;;;;;;;4.92;100.00;101655.27;3603171;80;99594;-93
2022/01/13 23:39:40;;;;;;;29.37;12.28;;;;;;;4.91;100.00;101639.45;3613489;80;99349;-96
2022/01/13 23:44:46;;;;;;;27.23;11.47;;;;;;;4.91;100.00;101646.84;3616581;80;35460;-96